Bogard Atmospheric Data: 07/12/2019 Summary  Detailed Graphs  Station List

  Temperature     Wind Precipitation Visibility
Timestamp Air Wet
Bulb
Dew-
point
24-hr
Max
24-hr
Min
Relative
Humidity
Atmospheric
Pressure
Avg
Speed
Avg
Dir
Spot
Speed
Spot
Dir
Max
Speed
Max
Dir
  Rate Situation Start End 1 hr 3 hr 6 hr 12 hr 24 hr   Situation
Date Time °F °F °F °F °F % in Hg mph ° mph ° mph ° Y/N in/hr text Date Time Date Time in in in in in mi text
07/12/2019 12:02 AM 53.42 48.92 45.14 82.58 38.84 73.0 Not Reported 0.89 W 1.57 W 2.91 W No 0.000 No Precipitation 07/07/2019 03:33 PM 07/07/2019 03:38 PM 0.000 0.000 0.000 0.000 0.000 Not Reported Not Reported
07/12/2019 12:17 AM 52.52 48.56 44.96 82.58 38.84 75.0 Not Reported 0.89 NW 0.67 NW 2.01 W No 0.000 No Precipitation 07/07/2019 03:33 PM 07/07/2019 03:38 PM 0.000 0.000 0.000 0.000 0.000 Not Reported Not Reported
07/12/2019 12:32 AM 51.26 47.48 43.88 82.58 38.84 76.0 Not Reported 0.00 N 0.00 W 0.89 NW No 0.000 No Precipitation 07/07/2019 03:33 PM 07/07/2019 03:38 PM 0.000 0.000 0.000 0.000 0.000 Not Reported Not Reported
07/12/2019 12:47 AM 50.00 46.94 44.24 82.58 38.84 79.0 Not Reported 0.89 SW 0.89 W 0.89 SW No 0.000 No Precipitation 07/07/2019 03:33 PM 07/07/2019 03:38 PM 0.000 0.000 0.000 0.000 0.000 Not Reported Not Reported
07/12/2019 01:02 AM 49.64 46.40 43.16 82.58 38.84 77.0 Not Reported 0.00 N 0.00 W 1.57 W No 0.000 No Precipitation 07/07/2019 03:33 PM 07/07/2019 03:38 PM 0.000 0.000 0.000 0.000 0.000 Not Reported Not Reported
07/12/2019 01:17 AM 48.38 45.68 42.80 82.58 38.84 81.0 Not Reported 0.45 SW 0.00 SW 0.89 SW No 0.000 No Precipitation 07/07/2019 03:33 PM 07/07/2019 03:38 PM 0.000 0.000 0.000 0.000 0.000 Not Reported Not Reported
07/12/2019 01:32 AM 48.20 45.86 43.16 82.58 38.84 83.0 Not Reported 1.34 W 1.12 W 1.79 NW No 0.000 No Precipitation 07/07/2019 03:33 PM 07/07/2019 03:38 PM 0.000 0.000 0.000 0.000 0.000 Not Reported Not Reported
07/12/2019 01:47 AM 48.02 45.68 43.52 82.58 38.84 84.0 Not Reported 1.34 W 1.34 NW 1.57 W No 0.000 No Precipitation 07/07/2019 03:33 PM 07/07/2019 03:38 PM 0.000 0.000 0.000 0.000 0.000 Not Reported Not Reported
07/12/2019 02:02 AM 47.48 45.14 42.62 82.58 38.84 83.0 Not Reported 0.89 W 1.34 W 1.12 W No 0.000 No Precipitation 07/07/2019 03:33 PM 07/07/2019 03:38 PM 0.000 0.000 0.000 0.000 0.000 Not Reported Not Reported
07/12/2019 02:17 AM 46.76 44.24 42.26 82.58 38.84 82.0 Not Reported 0.00 W 0.45 W 2.01 W No 0.000 No Precipitation 07/07/2019 03:33 PM 07/07/2019 03:38 PM 0.000 0.000 0.000 0.000 0.000 Not Reported Not Reported
07/12/2019 02:32 AM 45.86 43.34 41.00 82.58 38.84 82.0 Not Reported 0.00 N 0.00 W 0.45 W No 0.000 No Precipitation 07/07/2019 03:33 PM 07/07/2019 03:38 PM 0.000 0.000 0.000 0.000 0.000 Not Reported Not Reported
07/12/2019 02:47 AM 45.50 43.16 41.00 82.58 38.84 84.0 Not Reported 1.34 NW 0.00 NW 1.34 W No 0.000 No Precipitation 07/07/2019 03:33 PM 07/07/2019 03:38 PM 0.000 0.000 0.000 0.000 0.000 Not Reported Not Reported
07/12/2019 03:02 AM 44.78 42.62 40.46 82.58 38.84 84.0 Not Reported 0.45 W 1.12 W 1.57 W No 0.000 No Precipitation 07/07/2019 03:33 PM 07/07/2019 03:38 PM 0.000 0.000 0.000 0.000 0.000 Not Reported Not Reported
07/12/2019 03:17 AM 43.70 41.54 39.38 82.58 38.84 83.0 Not Reported 0.45 SW 0.67 SW 2.24 SW No 0.000 No Precipitation 07/07/2019 03:33 PM 07/07/2019 03:38 PM 0.000 0.000 0.000 0.000 0.000 Not Reported Not Reported
07/12/2019 03:32 AM 43.88 41.54 39.20 82.58 38.84 83.0 Not Reported 0.22 W 0.22 W 1.12 W No 0.000 No Precipitation 07/07/2019 03:33 PM 07/07/2019 03:38 PM 0.000 0.000 0.000 0.000 0.000 Not Reported Not Reported
07/12/2019 03:47 AM 42.62 40.82 39.20 82.58 38.84 87.0 Not Reported 0.00 N 0.00 W 0.89 W No 0.000 No Precipitation 07/07/2019 03:33 PM 07/07/2019 03:38 PM 0.000 0.000 0.000 0.000 0.000 Not Reported Not Reported
07/12/2019 04:02 AM 42.08 40.28 38.48 82.58 38.84 87.0 Not Reported 0.00 N 0.00 SW 0.00 W No 0.000 No Precipitation 07/07/2019 03:33 PM 07/07/2019 03:38 PM 0.000 0.000 0.000 0.000 0.000 Not Reported Not Reported
07/12/2019 04:17 AM 41.54 40.10 38.48 82.58 38.84 89.0 Not Reported 1.12 W 0.67 SW 1.57 W No 0.000 No Precipitation 07/07/2019 03:33 PM 07/07/2019 03:38 PM 0.000 0.000 0.000 0.000 0.000 Not Reported Not Reported
07/12/2019 04:32 AM 41.36 39.74 37.94 82.58 38.84 87.0 Not Reported 0.00 N 0.00 W 0.67 SW No 0.000 No Precipitation 07/07/2019 03:33 PM 07/07/2019 03:38 PM 0.000 0.000 0.000 0.000 0.000 Not Reported Not Reported
07/12/2019 04:47 AM 41.36 39.74 37.94 82.58 38.84 87.0 Not Reported 0.00 N 0.00 W 1.12 W No 0.000 No Precipitation 07/07/2019 03:33 PM 07/07/2019 03:38 PM 0.000 0.000 0.000 0.000 0.000 Not Reported Not Reported
07/12/2019 05:02 AM 41.36 39.92 38.12 82.58 38.84 88.0 Not Reported 0.00 W 0.00 W 0.67 W No 0.000 No Precipitation 07/07/2019 03:33 PM 07/07/2019 03:38 PM 0.000 0.000 0.000 0.000 0.000 Not Reported Not Reported
07/12/2019 05:17 AM 41.36 40.28 38.84 82.58 38.84 90.0 Not Reported 2.01 NW 1.57 NW 1.12 W No 0.000 No Precipitation 07/07/2019 03:33 PM 07/07/2019 03:38 PM 0.000 0.000 0.000 0.000 0.000 Not Reported Not Reported
07/12/2019 05:32 AM 41.00 39.56 38.12 82.58 38.84 89.0 Not Reported 0.00 W 0.89 W 1.34 NW No 0.000 No Precipitation 07/07/2019 03:33 PM 07/07/2019 03:38 PM 0.000 0.000 0.000 0.000 0.000 Not Reported Not Reported
07/12/2019 05:47 AM 40.28 39.20 37.76 82.58 38.84 90.0 Not Reported 0.00 N 0.45 W 1.34 W No 0.000 No Precipitation 07/07/2019 03:33 PM 07/07/2019 03:38 PM 0.000 0.000 0.000 0.000 0.000 Not Reported Not Reported
07/12/2019 06:02 AM 39.38 38.48 37.04 82.58 38.84 91.0 Not Reported 0.00 W 0.00 W 0.22 W No 0.000 No Precipitation 07/07/2019 03:33 PM 07/07/2019 03:38 PM 0.000 0.000 0.000 0.000 0.000 Not Reported Not Reported
07/12/2019 06:17 AM 39.20 38.12 37.04 82.58 38.84 91.0 Not Reported 0.00 N 0.00 W 0.00 W No 0.000 No Precipitation 07/07/2019 03:33 PM 07/07/2019 03:38 PM 0.000 0.000 0.000 0.000 0.000 Not Reported Not Reported
07/12/2019 06:32 AM 38.66 37.76 36.86 82.58 38.66 92.0 Not Reported 0.00 N 0.00 W 0.00 W No 0.000 No Precipitation 07/07/2019 03:33 PM 07/07/2019 03:38 PM 0.000 0.000 0.000 0.000 0.000 Not Reported Not Reported
07/12/2019 06:47 AM 38.48 37.76 36.68 82.58 38.30 93.0 Not Reported 1.12 SW 0.89 SW 0.67 W No 0.000 No Precipitation 07/07/2019 03:33 PM 07/07/2019 03:38 PM 0.000 0.000 0.000 0.000 0.000 Not Reported Not Reported
07/12/2019 07:02 AM 38.84 37.94 36.68 82.58 38.30 91.0 Not Reported 0.00 N 0.22 W 0.45 W No 0.000 No Precipitation 07/07/2019 03:33 PM 07/07/2019 03:38 PM 0.000 0.000 0.000 0.000 0.000 Not Reported Not Reported
07/12/2019 07:17 AM 40.64 39.20 37.58 82.58 38.30 88.0 Not Reported 0.00 N 0.00 N 1.34 W No 0.000 No Precipitation 07/07/2019 03:33 PM 07/07/2019 03:38 PM 0.000 0.000 0.000 0.000 0.000 Not Reported Not Reported
07/12/2019 07:32 AM 41.54 40.10 38.12 82.58 38.30 87.0 Not Reported 0.00 N 0.00 N 0.00 N No 0.000 No Precipitation 07/07/2019 03:33 PM 07/07/2019 03:38 PM 0.000 0.000 0.000 0.000 0.000 Not Reported Not Reported
07/12/2019 07:47 AM 43.88 41.90 39.38 82.58 38.30 83.0 Not Reported 0.00 SW 0.00 SW 1.34 SW No 0.000 No Precipitation 07/07/2019 03:33 PM 07/07/2019 03:38 PM 0.000 0.000 0.000 0.000 0.000 Not Reported Not Reported
07/12/2019 08:02 AM 47.48 44.24 40.82 82.58 38.30 77.0 Not Reported 1.12 E 1.34 E 1.34 E No 0.000 No Precipitation 07/07/2019 03:33 PM 07/07/2019 03:38 PM 0.000 0.000 0.000 0.000 0.000 Not Reported Not Reported
07/12/2019 08:17 AM 47.84 44.78 41.90 82.58 38.30 79.0 Not Reported 1.34 E 0.89 E 1.79 E No 0.000 No Precipitation 07/07/2019 03:33 PM 07/07/2019 03:38 PM 0.000 0.000 0.000 0.000 0.000 Not Reported Not Reported
07/12/2019 08:32 AM 50.18 46.58 43.16 82.58 38.30 77.0 Not Reported 1.79 E 0.89 SE 2.24 E No 0.000 No Precipitation 07/07/2019 03:33 PM 07/07/2019 03:38 PM 0.000 0.000 0.000 0.000 0.000 Not Reported Not Reported
07/12/2019 08:47 AM 53.24 48.56 44.06 82.58 38.30 70.0 Not Reported 0.00 E 1.12 SE 2.24 E No 0.000 No Precipitation 07/07/2019 03:33 PM 07/07/2019 03:38 PM 0.000 0.000 0.000 0.000 0.000 Not Reported Not Reported
07/12/2019 09:02 AM 55.40 49.82 44.60 82.58 38.30 67.0 Not Reported 1.57 E 2.01 NE 2.24 E No 0.000 No Precipitation 07/07/2019 03:33 PM 07/07/2019 03:38 PM 0.000 0.000 0.000 0.000 0.000 Not Reported Not Reported
07/12/2019 09:17 AM 58.28 51.62 46.04 82.58 38.30 62.0 Not Reported 0.45 E 1.12 NE 2.01 NE No 0.000 No Precipitation 07/07/2019 03:33 PM 07/07/2019 03:38 PM 0.000 0.000 0.000 0.000 0.000 Not Reported Not Reported
07/12/2019 09:32 AM 60.44 52.88 46.58 82.58 38.30 61.0 Not Reported 2.24 E 3.13 E 2.91 E No 0.000 No Precipitation 07/07/2019 03:33 PM 07/07/2019 03:38 PM 0.000 0.000 0.000 0.000 0.000 Not Reported Not Reported
07/12/2019 09:47 AM 63.86 54.68 47.30 82.58 38.30 54.0 Not Reported 0.89 E 1.34 NE 3.36 SE No 0.000 No Precipitation 07/07/2019 03:33 PM 07/07/2019 03:38 PM 0.000 0.000 0.000 0.000 0.000 Not Reported Not Reported
07/12/2019 10:02 AM 65.84 55.58 48.38 82.58 38.30 51.0 Not Reported 2.24 E 2.01 E 2.68 E No 0.000 No Precipitation 07/07/2019 03:33 PM 07/07/2019 03:38 PM 0.000 0.000 0.000 0.000 0.000 Not Reported Not Reported
07/12/2019 10:17 AM 67.82 55.40 45.86 82.58 38.30 44.0 Not Reported 2.91 E 2.46 E 3.36 E No 0.000 No Precipitation 07/07/2019 03:33 PM 07/07/2019 03:38 PM 0.000 0.000 0.000 0.000 0.000 Not Reported Not Reported
07/12/2019 10:32 AM 69.08 55.22 43.52 82.58 38.30 39.0 Not Reported 3.36 E 4.47 E 5.14 E No 0.000 No Precipitation 07/07/2019 03:33 PM 07/07/2019 03:38 PM 0.000 0.000 0.000 0.000 0.000 Not Reported Not Reported
07/12/2019 10:47 AM 71.24 56.66 44.42 82.58 38.30 38.0 Not Reported 3.80 E 3.36 E 6.49 E No 0.000 No Precipitation 07/07/2019 03:33 PM 07/07/2019 03:38 PM 0.000 0.000 0.000 0.000 0.000 Not Reported Not Reported
07/12/2019 11:02 AM 71.78 56.12 43.34 82.58 38.30 36.0 Not Reported 4.03 NE 6.71 NE 7.16 E No 0.000 No Precipitation 07/07/2019 03:33 PM 07/07/2019 03:38 PM 0.000 0.000 0.000 0.000 0.000 Not Reported Not Reported
07/12/2019 11:17 AM 73.22 56.84 43.70 82.58 38.30 35.0 Not Reported 3.58 SE 4.03 SE 6.93 NE No 0.000 No Precipitation 07/07/2019 03:33 PM 07/07/2019 03:38 PM 0.000 0.000 0.000 0.000 0.000 Not Reported Not Reported
07/12/2019 11:32 AM 73.04 57.20 43.88 82.58 38.30 35.0 Not Reported 6.49 E 7.61 E 8.28 E No 0.000 No Precipitation 07/07/2019 03:33 PM 07/07/2019 03:38 PM 0.000 0.000 0.000 0.000 0.000 Not Reported Not Reported
07/12/2019 11:47 AM 74.12 57.56 43.52 82.58 38.30 34.0 Not Reported 6.04 E 6.93 NE 11.18 E No 0.000 No Precipitation 07/07/2019 03:33 PM 07/07/2019 03:38 PM 0.000 0.000 0.000 0.000 0.000 Not Reported Not Reported
07/12/2019 12:02 PM 75.20 57.74 42.08 82.58 38.30 31.0 Not Reported 8.72 NE 8.05 E 10.51 E No 0.000 No Precipitation 07/07/2019 03:33 PM 07/07/2019 03:38 PM 0.000 0.000 0.000 0.000 0.000 Not Reported Not Reported
07/12/2019 12:17 PM 76.64 57.38 38.66 82.58 38.30 27.0 Not Reported 5.59 E 4.47 E 9.84 NE No 0.000 No Precipitation 07/07/2019 03:33 PM 07/07/2019 03:38 PM 0.000 0.000 0.000 0.000 0.000 Not Reported Not Reported
07/12/2019 12:32 PM 78.08 56.66 38.30 82.58 38.30 23.0 Not Reported 5.37 SE 7.38 SE 7.16 S No 0.000 No Precipitation 07/07/2019 03:33 PM 07/07/2019 03:38 PM 0.000 0.000 0.000 0.000 0.000 Not Reported Not Reported
07/12/2019 12:47 PM 79.88 57.74 37.76 82.58 38.30 22.0 Not Reported 7.16 SE 7.38 S 9.84 E No 0.000 No Precipitation 07/07/2019 03:33 PM 07/07/2019 03:38 PM 0.000 0.000 0.000 0.000 0.000 Not Reported Not Reported
07/12/2019 01:02 PM 80.78 56.48 37.22 82.58 38.30 17.0 Not Reported 7.16 S 4.25 S 13.65 SE No 0.000 No Precipitation 07/07/2019 03:33 PM 07/07/2019 03:38 PM 0.000 0.000 0.000 0.000 0.000 Not Reported Not Reported
07/12/2019 01:17 PM 80.96 55.04 29.48 82.58 38.30 15.0 Not Reported 6.49 S 5.82 S 11.41 S No 0.000 No Precipitation 07/07/2019 03:33 PM 07/07/2019 03:38 PM 0.000 0.000 0.000 0.000 0.000 Not Reported Not Reported
07/12/2019 01:32 PM 80.42 55.94 30.38 82.58 38.30 17.0 Not Reported 6.93 SE 6.26 SE 12.97 SW No 0.000 No Precipitation 07/07/2019 03:33 PM 07/07/2019 03:38 PM 0.000 0.000 0.000 0.000 0.000 Not Reported Not Reported
07/12/2019 01:47 PM 81.86 56.30 32.18 82.58 38.30 16.0 Not Reported 5.59 SE 8.28 S 12.75 S No 0.000 No Precipitation 07/07/2019 03:33 PM 07/07/2019 03:38 PM 0.000 0.000 0.000 0.000 0.000 Not Reported Not Reported
07/12/2019 02:02 PM 80.96 56.12 31.28 82.58 38.30 16.0 Not Reported 6.71 SW 7.61 SE 10.96 SW No 0.000 No Precipitation 07/07/2019 03:33 PM 07/07/2019 03:38 PM 0.000 0.000 0.000 0.000 0.000 Not Reported Not Reported
07/12/2019 02:17 PM 81.14 55.94 32.72 82.58 38.30 15.0 Not Reported 4.03 S 2.24 E 11.86 SE No 0.000 No Precipitation 07/07/2019 03:33 PM 07/07/2019 03:38 PM 0.000 0.000 0.000 0.000 0.000 Not Reported Not Reported
07/12/2019 02:32 PM 82.76 57.92 34.16 82.94 38.30 18.0 Not Reported 5.59 SW 5.37 SE 10.74 S No 0.000 No Precipitation 07/07/2019 03:33 PM 07/07/2019 03:38 PM 0.000 0.000 0.000 0.000 0.000 Not Reported Not Reported
07/12/2019 02:47 PM 83.30 57.92 36.50 83.84 38.30 19.0 Not Reported 3.36 S 2.91 N 11.18 S No 0.000 No Precipitation 07/07/2019 03:33 PM 07/07/2019 03:38 PM 0.000 0.000 0.000 0.000 0.000 Not Reported Not Reported
07/12/2019 03:02 PM 83.48 57.02 33.98 83.84 38.30 15.0 Not Reported 4.47 N 2.01 NW 12.97 SW No 0.000 No Precipitation 07/07/2019 03:33 PM 07/07/2019 03:38 PM 0.000 0.000 0.000 0.000 0.000 Not Reported Not Reported
07/12/2019 03:17 PM 82.40 57.02 31.64 83.84 38.30 17.0 Not Reported 4.70 NW 2.91 W 9.84 SW No 0.000 No Precipitation 07/07/2019 03:33 PM 07/07/2019 03:38 PM 0.000 0.000 0.000 0.000 0.000 Not Reported Not Reported
07/12/2019 03:32 PM 83.84 58.28 34.52 83.84 38.30 17.0 Not Reported 1.57 NW 3.13 W 8.95 W No 0.000 No Precipitation 07/07/2019 03:33 PM 07/07/2019 03:38 PM 0.000 0.000 0.000 0.000 0.000 Not Reported Not Reported
07/12/2019 03:47 PM 81.50 57.20 34.34 83.84 38.30 18.0 Not Reported 3.58 NE 0.00 E 10.07 SW No 0.000 No Precipitation 07/07/2019 03:33 PM 07/07/2019 03:38 PM 0.000 0.000 0.000 0.000 0.000 Not Reported Not Reported
07/12/2019 04:02 PM 82.22 57.74 34.52 83.84 38.30 17.0 Not Reported 5.82 SW 2.24 S 10.96 SW No 0.000 No Precipitation 07/07/2019 03:33 PM 07/07/2019 03:38 PM 0.000 0.000 0.000 0.000 0.000 Not Reported Not Reported
07/12/2019 04:17 PM 83.48 57.92 33.44 83.84 38.30 16.0 Not Reported 7.38 S 7.61 W 9.62 SE No 0.000 No Precipitation 07/07/2019 03:33 PM 07/07/2019 03:38 PM 0.000 0.000 0.000 0.000 0.000 Not Reported Not Reported
07/12/2019 04:32 PM 83.66 57.74 33.62 84.02 38.30 16.0 Not Reported 4.92 S 4.25 S 10.29 S No 0.000 No Precipitation 07/07/2019 03:33 PM 07/07/2019 03:38 PM 0.000 0.000 0.000 0.000 0.000 Not Reported Not Reported
07/12/2019 04:47 PM 82.76 57.38 34.34 84.02 38.30 17.0 Not Reported 5.82 S 5.14 SW 11.41 S No 0.000 No Precipitation 07/07/2019 03:33 PM 07/07/2019 03:38 PM 0.000 0.000 0.000 0.000 0.000 Not Reported Not Reported
07/12/2019 05:02 PM 82.76 56.66 31.10 84.02 38.30 15.0 Not Reported 7.83 S 10.74 S 13.87 SW No 0.000 No Precipitation 07/07/2019 03:33 PM 07/07/2019 03:38 PM 0.000 0.000 0.000 0.000 0.000 Not Reported Not Reported
07/12/2019 05:17 PM 83.66 57.20 33.62 84.02 38.30 15.0 Not Reported 3.80 S 9.17 SW 11.63 SW No 0.000 No Precipitation 07/07/2019 03:33 PM 07/07/2019 03:38 PM 0.000 0.000 0.000 0.000 0.000 Not Reported Not Reported
07/12/2019 05:32 PM 82.22 57.20 34.16 84.02 38.30 17.0 Not Reported 7.38 S 10.51 S 11.18 S No 0.000 No Precipitation 07/07/2019 03:33 PM 07/07/2019 03:38 PM 0.000 0.000 0.000 0.000 0.000 Not Reported Not Reported
07/12/2019 05:47 PM 82.58 57.56 33.08 84.02 38.30 17.0 Not Reported 8.72 S 6.04 SW 10.51 S No 0.000 No Precipitation 07/07/2019 03:33 PM 07/07/2019 03:38 PM 0.000 0.000 0.000 0.000 0.000 Not Reported Not Reported
07/12/2019 06:02 PM 82.40 56.66 32.18 84.02 38.30 16.0 Not Reported 6.04 SW 8.50 SW 10.96 S No 0.000 No Precipitation 07/07/2019 03:33 PM 07/07/2019 03:38 PM 0.000 0.000 0.000 0.000 0.000 Not Reported Not Reported
07/12/2019 06:17 PM 83.12 57.38 33.62 84.02 38.30 16.0 Not Reported 3.58 S 9.84 S 10.96 S No 0.000 No Precipitation 07/07/2019 03:33 PM 07/07/2019 03:38 PM 0.000 0.000 0.000 0.000 0.000 Not Reported Not Reported
07/12/2019 06:32 PM 82.22 56.66 32.36 84.02 38.30 16.0 Not Reported 5.59 S 6.49 S 10.51 SW No 0.000 No Precipitation 07/07/2019 03:33 PM 07/07/2019 03:38 PM 0.000 0.000 0.000 0.000 0.000 Not Reported Not Reported
07/12/2019 06:47 PM 81.68 57.20 33.44 84.02 38.30 17.0 Not Reported 6.71 S 4.25 SE 9.62 SW No 0.000 No Precipitation 07/07/2019 03:33 PM 07/07/2019 03:38 PM 0.000 0.000 0.000 0.000 0.000 Not Reported Not Reported
07/12/2019 07:02 PM 81.32 56.30 32.00 84.02 38.30 16.0 Not Reported 5.59 SW 8.50 S 8.50 SW No 0.000 No Precipitation 07/07/2019 03:33 PM 07/07/2019 03:38 PM 0.000 0.000 0.000 0.000 0.000 Not Reported Not Reported
07/12/2019 07:17 PM 81.50 57.74 39.20 84.02 38.30 19.0 Not Reported 4.25 W 3.58 W 9.84 S No 0.000 No Precipitation 07/07/2019 03:33 PM 07/07/2019 03:38 PM 0.000 0.000 0.000 0.000 0.000 Not Reported Not Reported
07/12/2019 07:32 PM 80.60 56.12 31.46 84.02 38.30 17.0 Not Reported 4.70 SW 1.79 W 7.61 SW No 0.000 No Precipitation 07/07/2019 03:33 PM 07/07/2019 03:38 PM 0.000 0.000 0.000 0.000 0.000 Not Reported Not Reported
07/12/2019 07:47 PM 80.24 58.28 41.00 84.02 38.30 23.0 Not Reported 4.03 S 5.82 W 5.14 W No 0.000 No Precipitation 07/07/2019 03:33 PM 07/07/2019 03:38 PM 0.000 0.000 0.000 0.000 0.000 Not Reported Not Reported
07/12/2019 08:02 PM 77.90 58.82 43.70 84.02 38.30 29.0 Not Reported 2.68 W 3.36 W 5.37 NW No 0.000 No Precipitation 07/07/2019 03:33 PM 07/07/2019 03:38 PM 0.000 0.000 0.000 0.000 0.000 Not Reported Not Reported
07/12/2019 08:17 PM 77.00 58.82 44.42 84.02 38.30 31.0 Not Reported 3.36 NW 1.79 NW 7.61 NW No 0.000 No Precipitation 07/07/2019 03:33 PM 07/07/2019 03:38 PM 0.000 0.000 0.000 0.000 0.000 Not Reported Not Reported
07/12/2019 08:32 PM 75.02 57.92 44.60 84.02 38.30 33.0 Not Reported 4.47 N 0.22 SW 5.82 NW No 0.000 No Precipitation 07/07/2019 03:33 PM 07/07/2019 03:38 PM 0.000 0.000 0.000 0.000 0.000 Not Reported Not Reported
07/12/2019 08:47 PM 73.76 57.56 45.14 84.02 38.30 36.0 Not Reported 1.79 N 1.34 NW 4.47 N No 0.000 No Precipitation 07/07/2019 03:33 PM 07/07/2019 03:38 PM 0.000 0.000 0.000 0.000 0.000 Not Reported Not Reported
07/12/2019 09:02 PM 72.32 57.20 45.50 84.02 38.30 38.0 Not Reported 3.13 NW 2.24 NE 3.80 NW No 0.000 No Precipitation 07/07/2019 03:33 PM 07/07/2019 03:38 PM 0.000 0.000 0.000 0.000 0.000 Not Reported Not Reported
07/12/2019 09:17 PM 71.24 56.30 44.60 84.02 38.30 38.0 Not Reported 3.58 NE 4.92 NE 3.80 N No 0.000 No Precipitation 07/07/2019 03:33 PM 07/07/2019 03:38 PM 0.000 0.000 0.000 0.000 0.000 Not Reported Not Reported
07/12/2019 09:32 PM 69.62 55.76 44.42 84.02 38.30 39.0 Not Reported 1.34 NW 4.03 NW 5.82 N No 0.000 No Precipitation 07/07/2019 03:33 PM 07/07/2019 03:38 PM 0.000 0.000 0.000 0.000 0.000 Not Reported Not Reported
07/12/2019 09:47 PM 68.90 55.22 44.60 84.02 38.30 41.0 Not Reported 1.79 NW 2.68 N 5.82 NW No 0.000 No Precipitation 07/07/2019 03:33 PM 07/07/2019 03:38 PM 0.000 0.000 0.000 0.000 0.000 Not Reported Not Reported
07/12/2019 10:02 PM 66.02 54.50 44.60 84.02 38.30 45.0 Not Reported 2.68 N 3.58 NW 4.25 N No 0.000 No Precipitation 07/07/2019 03:33 PM 07/07/2019 03:38 PM 0.000 0.000 0.000 0.000 0.000 Not Reported Not Reported
07/12/2019 10:17 PM 64.40 53.78 45.14 84.02 38.30 49.0 Not Reported 1.34 SW 1.12 W 4.47 NW No 0.000 No Precipitation 07/07/2019 03:33 PM 07/07/2019 03:38 PM 0.000 0.000 0.000 0.000 0.000 Not Reported Not Reported
07/12/2019 10:32 PM 63.50 53.24 45.14 84.02 38.30 50.0 Not Reported 2.24 W 1.79 W 3.13 W No 0.000 No Precipitation 07/07/2019 03:33 PM 07/07/2019 03:38 PM 0.000 0.000 0.000 0.000 0.000 Not Reported Not Reported
07/12/2019 10:47 PM 61.70 52.16 44.42 84.02 38.30 53.0 Not Reported 1.57 W 1.34 SW 2.68 W No 0.000 No Precipitation 07/07/2019 03:33 PM 07/07/2019 03:38 PM 0.000 0.000 0.000 0.000 0.000 Not Reported Not Reported
07/12/2019 11:02 PM 59.72 51.80 45.32 84.02 38.30 58.0 Not Reported 2.68 SW 3.58 SW 3.36 SW No 0.000 No Precipitation 07/07/2019 03:33 PM 07/07/2019 03:38 PM 0.000 0.000 0.000 0.000 0.000 Not Reported Not Reported
07/12/2019 11:17 PM 58.28 51.08 44.60 84.02 38.30 60.0 Not Reported 1.57 W 2.24 W 3.80 SW No 0.000 No Precipitation 07/07/2019 03:33 PM 07/07/2019 03:38 PM 0.000 0.000 0.000 0.000 0.000 Not Reported Not Reported
07/12/2019 11:32 PM 57.38 50.36 44.06 84.02 38.30 60.0 Not Reported 1.57 W 1.12 W 3.36 W No 0.000 No Precipitation 07/07/2019 03:33 PM 07/07/2019 03:38 PM 0.000 0.000 0.000 0.000 0.000 Not Reported Not Reported
07/12/2019 11:47 PM 56.66 50.18 44.60 84.02 38.30 63.0 Not Reported 1.57 W 0.89 W 3.36 NW No 0.000 No Precipitation 07/07/2019 03:33 PM 07/07/2019 03:38 PM 0.000 0.000 0.000 0.000 0.000 Not Reported Not Reported